KAMW/AMW METAR and TAF weather

Enter ICAO airport designator
Station Type Date Time Source
KAMW METAR 2022/12/10 01:53 UTC NOAA

KAMW 100153Z AUTO 12005KT 10SM OVC009 02/00 A3015 RMK AO2 SLP216 T00170000


Station Type Date Time Source
KAMW Decoded METAR 2022/12/10 01:53 UTC NOAA

AMES MUNICIPAL AIRPORT, IA, United States (KAMW) 41-59N 93-37W 279M
Dec 09, 2022 - 08:53 PM EST / 2022.12.10 0153 UTC
Wind: from the ESE (120 degrees) at 6 MPH (5 KT):0
Visibility: 10 mile(s):0
Sky conditions: overcast
Temperature: 35.1 F (1.7 C)
Dew Point: 32.0 F (0.0 C)
Relative Humidity: 88%
Pressure (altimeter): 30.15 in. Hg (1020 hPa)
ob: KAMW 100153Z AUTO 12005KT 10SM OVC009 02/00 A3015 RMK AO2 SLP216 T00170000
cycle: 2

Station Type Date Time Source
KAMW TAF UTC NOAA

Error!

Example: see airport list